sensor_id;sensor_type;location;lat;lon;timestamp;temperature;humidity
20973;DHT22;10645;52.370;13.314;2023-07-31T00:00:51;14.90;99.90
20973;DHT22;10645;52.370;13.314;2023-07-31T00:03:17;14.90;99.90
20973;DHT22;10645;52.370;13.314;2023-07-31T00:05:43;14.90;99.90
20973;DHT22;10645;52.370;13.314;2023-07-31T00:08:09;14.90;99.90
20973;DHT22;10645;52.370;13.314;2023-07-31T00:10:35;14.90;99.90
20973;DHT22;10645;52.370;13.314;2023-07-31T00:13:01;14.90;99.90
20973;DHT22;10645;52.370;13.314;2023-07-31T00:15:28;14.80;99.90
20973;DHT22;10645;52.370;13.314;2023-07-31T00:17:54;14.80;99.90
20973;DHT22;10645;52.370;13.314;2023-07-31T00:20:20;14.80;99.90
20973;DHT22;10645;52.370;13.314;2023-07-31T00:22:46;14.80;99.90
20973;DHT22;10645;52.370;13.314;2023-07-31T00:25:12;14.80;99.90
20973;DHT22;10645;52.370;13.314;2023-07-31T00:27:38;14.80;99.90
20973;DHT22;10645;52.370;13.314;2023-07-31T00:30:04;14.80;99.90
20973;DHT22;10645;52.370;13.314;2023-07-31T00:32:32;14.70;99.90
20973;DHT22;10645;52.370;13.314;2023-07-31T00:34:59;14.70;99.90
20973;DHT22;10645;52.370;13.314;2023-07-31T00:37:25;14.70;99.90
20973;DHT22;10645;52.370;13.314;2023-07-31T00:39:51;14.70;99.90
20973;DHT22;10645;52.370;13.314;2023-07-31T00:42:18;14.80;99.90
20973;DHT22;10645;52.370;13.314;2023-07-31T00:44:44;14.80;99.90
20973;DHT22;10645;52.370;13.314;2023-07-31T00:47:10;14.80;99.90
20973;DHT22;10645;52.370;13.314;2023-07-31T00:49:36;14.80;99.90
20973;DHT22;10645;52.370;13.314;2023-07-31T00:52:02;14.90;99.90
20973;DHT22;10645;52.370;13.314;2023-07-31T00:54:29;14.90;99.90
20973;DHT22;10645;52.370;13.314;2023-07-31T00:56:55;14.90;99.90
20973;DHT22;10645;52.370;13.314;2023-07-31T00:59:21;14.90;99.90
20973;DHT22;10645;52.370;13.314;2023-07-31T01:01:47;14.90;99.90
20973;DHT22;10645;52.370;13.314;2023-07-31T01:04:14;14.90;99.90
20973;DHT22;10645;52.370;13.314;2023-07-31T01:07:01;14.90;99.90
20973;DHT22;10645;52.370;13.314;2023-07-31T01:09:40;14.90;99.90
20973;DHT22;10645;52.370;13.314;2023-07-31T01:12:07;14.80;99.90
20973;DHT22;10645;52.370;13.314;2023-07-31T01:14:35;14.80;99.90
20973;DHT22;10645;52.370;13.314;2023-07-31T01:17:01;14.80;99.90
20973;DHT22;10645;52.370;13.314;2023-07-31T01:19:27;14.80;99.90
20973;DHT22;10645;52.370;13.314;2023-07-31T01:22:23;14.80;99.90
20973;DHT22;10645;52.370;13.314;2023-07-31T01:25:08;14.80;99.90
20973;DHT22;10645;52.370;13.314;2023-07-31T01:27:53;14.70;99.90
20973;DHT22;10645;52.370;13.314;2023-07-31T01:30:25;14.70;99.90
20973;DHT22;10645;52.370;13.314;2023-07-31T01:32:54;14.70;99.90
20973;DHT22;10645;52.370;13.314;2023-07-31T01:35:21;14.70;99.90
20973;DHT22;10645;52.370;13.314;2023-07-31T01:37:48;14.70;99.90
20973;DHT22;10645;52.370;13.314;2023-07-31T01:40:14;14.70;99.90
20973;DHT22;10645;52.370;13.314;2023-07-31T01:42:40;14.80;99.90
20973;DHT22;10645;52.370;13.314;2023-07-31T01:45:06;14.80;99.90
20973;DHT22;10645;52.370;13.314;2023-07-31T01:47:33;14.80;99.90
20973;DHT22;10645;52.370;13.314;2023-07-31T01:49:59;14.80;99.90
20973;DHT22;10645;52.370;13.314;2023-07-31T01:52:25;14.80;99.90
20973;DHT22;10645;52.370;13.314;2023-07-31T01:54:52;14.80;99.90
20973;DHT22;10645;52.370;13.314;2023-07-31T01:57:18;14.80;99.90
20973;DHT22;10645;52.370;13.314;2023-07-31T01:59:44;14.80;99.90
20973;DHT22;10645;52.370;13.314;2023-07-31T02:02:10;14.80;99.90
20973;DHT22;10645;52.370;13.314;2023-07-31T02:04:36;14.80;99.90
20973;DHT22;10645;52.370;13.314;2023-07-31T02:07:04;14.80;99.90
20973;DHT22;10645;52.370;13.314;2023-07-31T02:09:30;14.80;99.90
20973;DHT22;10645;52.370;13.314;2023-07-31T02:11:56;14.70;99.90
20973;DHT22;10645;52.370;13.314;2023-07-31T02:14:22;14.70;99.90
20973;DHT22;10645;52.370;13.314;2023-07-31T02:16:48;14.80;99.90
20973;DHT22;10645;52.370;13.314;2023-07-31T02:19:14;14.80;99.90
20973;DHT22;10645;52.370;13.314;2023-07-31T02:21:40;14.70;99.90
20973;DHT22;10645;52.370;13.314;2023-07-31T02:24:07;14.80;99.90
20973;DHT22;10645;52.370;13.314;2023-07-31T02:26:33;14.80;99.90
20973;DHT22;10645;52.370;13.314;2023-07-31T02:29:00;14.80;99.90
20973;DHT22;10645;52.370;13.314;2023-07-31T02:31:26;14.80;99.90
20973;DHT22;10645;52.370;13.314;2023-07-31T02:33:52;14.70;99.90
20973;DHT22;10645;52.370;13.314;2023-07-31T02:36:18;14.70;99.90
20973;DHT22;10645;52.370;13.314;2023-07-31T02:38:44;14.80;99.90
20973;DHT22;10645;52.370;13.314;2023-07-31T02:41:10;14.70;99.90
20973;DHT22;10645;52.370;13.314;2023-07-31T02:43:37;14.80;99.90
20973;DHT22;10645;52.370;13.314;2023-07-31T02:46:03;14.80;99.90
20973;DHT22;10645;52.370;13.314;2023-07-31T02:48:29;14.80;99.90
20973;DHT22;10645;52.370;13.314;2023-07-31T02:50:55;14.80;99.90
20973;DHT22;10645;52.370;13.314;2023-07-31T02:53:21;14.80;99.90
20973;DHT22;10645;52.370;13.314;2023-07-31T02:55:48;14.80;99.90
20973;DHT22;10645;52.370;13.314;2023-07-31T02:58:15;14.90;99.90
20973;DHT22;10645;52.370;13.314;2023-07-31T03:00:44;14.90;99.90
20973;DHT22;10645;52.370;13.314;2023-07-31T03:03:10;14.90;99.90
20973;DHT22;10645;52.370;13.314;2023-07-31T03:05:37;14.90;99.90
20973;DHT22;10645;52.370;13.314;2023-07-31T03:08:03;14.90;99.90
20973;DHT22;10645;52.370;13.314;2023-07-31T03:10:29;14.90;99.90
20973;DHT22;10645;52.370;13.314;2023-07-31T03:12:55;14.90;99.90
20973;DHT22;10645;52.370;13.314;2023-07-31T03:15:21;14.90;99.90
20973;DHT22;10645;52.370;13.314;2023-07-31T03:17:48;14.90;99.90
20973;DHT22;10645;52.370;13.314;2023-07-31T03:20:14;14.90;99.90
20973;DHT22;10645;52.370;13.314;2023-07-31T03:22:40;14.90;99.90
20973;DHT22;10645;52.370;13.314;2023-07-31T03:25:06;14.90;99.90
20973;DHT22;10645;52.370;13.314;2023-07-31T03:27:32;14.90;99.90
20973;DHT22;10645;52.370;13.314;2023-07-31T03:29:59;14.90;99.90
20973;DHT22;10645;52.370;13.314;2023-07-31T03:32:26;14.90;99.90
20973;DHT22;10645;52.370;13.314;2023-07-31T03:34:53;14.90;99.90
20973;DHT22;10645;52.370;13.314;2023-07-31T03:37:19;14.90;99.90
20973;DHT22;10645;52.370;13.314;2023-07-31T03:39:45;14.90;99.90
20973;DHT22;10645;52.370;13.314;2023-07-31T03:42:12;14.90;99.90
20973;DHT22;10645;52.370;13.314;2023-07-31T03:44:38;15.00;99.90
20973;DHT22;10645;52.370;13.314;2023-07-31T03:47:05;15.00;99.90
20973;DHT22;10645;52.370;13.314;2023-07-31T03:49:31;15.00;99.90
20973;DHT22;10645;52.370;13.314;2023-07-31T03:51:57;15.10;99.90
20973;DHT22;10645;52.370;13.314;2023-07-31T03:54:23;15.10;99.90
20973;DHT22;10645;52.370;13.314;2023-07-31T03:56:49;15.10;99.90
20973;DHT22;10645;52.370;13.314;2023-07-31T03:59:15;15.10;99.90
20973;DHT22;10645;52.370;13.314;2023-07-31T04:01:41;15.20;99.90
20973;DHT22;10645;52.370;13.314;2023-07-31T04:04:08;15.20;99.90
20973;DHT22;10645;52.370;13.314;2023-07-31T04:06:34;15.20;99.90
20973;DHT22;10645;52.370;13.314;2023-07-31T04:09:00;15.20;99.90
20973;DHT22;10645;52.370;13.314;2023-07-31T04:11:26;15.20;99.90
20973;DHT22;10645;52.370;13.314;2023-07-31T04:13:52;15.20;99.90
20973;DHT22;10645;52.370;13.314;2023-07-31T04:16:18;15.20;99.90
20973;DHT22;10645;52.370;13.314;2023-07-31T04:18:44;15.20;99.90
20973;DHT22;10645;52.370;13.314;2023-07-31T04:21:10;15.20;99.90
20973;DHT22;10645;52.370;13.314;2023-07-31T04:23:36;15.20;99.90
20973;DHT22;10645;52.370;13.314;2023-07-31T04:26:02;15.20;99.90
20973;DHT22;10645;52.370;13.314;2023-07-31T04:28:28;15.20;99.90
20973;DHT22;10645;52.370;13.314;2023-07-31T04:30:57;15.30;99.90
20973;DHT22;10645;52.370;13.314;2023-07-31T04:33:23;15.30;99.90
20973;DHT22;10645;52.370;13.314;2023-07-31T04:35:53;15.30;99.90
20973;DHT22;10645;52.370;13.314;2023-07-31T04:38:20;15.30;99.90
20973;DHT22;10645;52.370;13.314;2023-07-31T04:40:47;15.30;99.90
20973;DHT22;10645;52.370;13.314;2023-07-31T04:43:13;15.40;99.90
20973;DHT22;10645;52.370;13.314;2023-07-31T04:45:41;15.40;99.90
20973;DHT22;10645;52.370;13.314;2023-07-31T04:48:08;15.40;99.90
20973;DHT22;10645;52.370;13.314;2023-07-31T04:50:34;15.40;99.90
20973;DHT22;10645;52.370;13.314;2023-07-31T04:53:00;15.40;99.90
20973;DHT22;10645;52.370;13.314;2023-07-31T04:55:26;15.40;99.90
20973;DHT22;10645;52.370;13.314;2023-07-31T04:57:52;15.40;99.90
20973;DHT22;10645;52.370;13.314;2023-07-31T05:00:18;15.40;99.90
20973;DHT22;10645;52.370;13.314;2023-07-31T05:02:44;15.40;99.90
20973;DHT22;10645;52.370;13.314;2023-07-31T05:05:11;15.50;99.90
20973;DHT22;10645;52.370;13.314;2023-07-31T05:07:37;15.50;99.90
20973;DHT22;10645;52.370;13.314;2023-07-31T05:10:03;15.50;99.90
20973;DHT22;10645;52.370;13.314;2023-07-31T05:12:29;15.60;99.90
20973;DHT22;10645;52.370;13.314;2023-07-31T05:14:55;15.60;99.90
20973;DHT22;10645;52.370;13.314;2023-07-31T05:17:21;15.70;99.90
20973;DHT22;10645;52.370;13.314;2023-07-31T05:19:47;15.70;99.90
20973;DHT22;10645;52.370;13.314;2023-07-31T05:22:13;15.80;99.90
20973;DHT22;10645;52.370;13.314;2023-07-31T05:24:39;15.80;99.90
20973;DHT22;10645;52.370;13.314;2023-07-31T05:27:06;15.80;99.90
20973;DHT22;10645;52.370;13.314;2023-07-31T05:29:32;15.70;99.90
20973;DHT22;10645;52.370;13.314;2023-07-31T05:31:58;15.80;99.90
20973;DHT22;10645;52.370;13.314;2023-07-31T05:34:24;15.80;99.90
20973;DHT22;10645;52.370;13.314;2023-07-31T05:40:37;15.80;99.90
20973;DHT22;10645;52.370;13.314;2023-07-31T05:43:03;15.90;99.90
20973;DHT22;10645;52.370;13.314;2023-07-31T05:45:29;15.90;99.90
20973;DHT22;10645;52.370;13.314;2023-07-31T05:47:55;16.00;99.90
20973;DHT22;10645;52.370;13.314;2023-07-31T05:50:22;16.10;99.90
20973;DHT22;10645;52.370;13.314;2023-07-31T05:52:48;16.10;99.90
20973;DHT22;10645;52.370;13.314;2023-07-31T05:55:14;16.10;99.90
20973;DHT22;10645;52.370;13.314;2023-07-31T05:57:40;16.10;99.90
20973;DHT22;10645;52.370;13.314;2023-07-31T06:00:06;16.10;99.90
20973;DHT22;10645;52.370;13.314;2023-07-31T06:02:33;16.10;99.90
20973;DHT22;10645;52.370;13.314;2023-07-31T06:05:03;16.20;99.90
20973;DHT22;10645;52.370;13.314;2023-07-31T06:07:32;16.20;99.90
20973;DHT22;10645;52.370;13.314;2023-07-31T06:09:58;16.30;99.90
20973;DHT22;10645;52.370;13.314;2023-07-31T06:12:31;16.30;99.90
20973;DHT22;10645;52.370;13.314;2023-07-31T06:14:57;16.40;99.90
20973;DHT22;10645;52.370;13.314;2023-07-31T06:17:23;16.40;99.90
20973;DHT22;10645;52.370;13.314;2023-07-31T06:19:50;16.40;99.90
20973;DHT22;10645;52.370;13.314;2023-07-31T06:22:16;16.50;99.90
20973;DHT22;10645;52.370;13.314;2023-07-31T06:24:43;16.50;99.90
20973;DHT22;10645;52.370;13.314;2023-07-31T06:27:09;16.50;99.90
20973;DHT22;10645;52.370;13.314;2023-07-31T06:29:35;16.50;99.90
20973;DHT22;10645;52.370;13.314;2023-07-31T06:32:01;16.50;99.90
20973;DHT22;10645;52.370;13.314;2023-07-31T06:34:27;16.60;99.90
20973;DHT22;10645;52.370;13.314;2023-07-31T06:36:53;16.70;99.90
20973;DHT22;10645;52.370;13.314;2023-07-31T06:39:19;16.80;99.90
20973;DHT22;10645;52.370;13.314;2023-07-31T06:41:45;16.80;99.90
20973;DHT22;10645;52.370;13.314;2023-07-31T06:44:11;16.80;99.90
20973;DHT22;10645;52.370;13.314;2023-07-31T06:46:38;16.80;99.90
20973;DHT22;10645;52.370;13.314;2023-07-31T06:49:04;16.80;99.90
20973;DHT22;10645;52.370;13.314;2023-07-31T06:51:30;16.80;99.90
20973;DHT22;10645;52.370;13.314;2023-07-31T06:53:58;16.70;99.90
20973;DHT22;10645;52.370;13.314;2023-07-31T06:56:24;16.60;99.90
20973;DHT22;10645;52.370;13.314;2023-07-31T06:58:50;16.70;99.90
20973;DHT22;10645;52.370;13.314;2023-07-31T07:01:16;16.60;99.90
20973;DHT22;10645;52.370;13.314;2023-07-31T07:03:42;16.70;99.90
20973;DHT22;10645;52.370;13.314;2023-07-31T07:06:08;16.70;99.90
20973;DHT22;10645;52.370;13.314;2023-07-31T07:08:34;16.60;99.90
20973;DHT22;10645;52.370;13.314;2023-07-31T07:11:00;16.60;99.90
20973;DHT22;10645;52.370;13.314;2023-07-31T07:13:26;16.60;99.90
20973;DHT22;10645;52.370;13.314;2023-07-31T07:15:52;16.60;99.90
20973;DHT22;10645;52.370;13.314;2023-07-31T07:18:18;16.60;99.90
20973;DHT22;10645;52.370;13.314;2023-07-31T07:20:49;16.60;99.90
20973;DHT22;10645;52.370;13.314;2023-07-31T07:23:16;16.60;99.90
20973;DHT22;10645;52.370;13.314;2023-07-31T07:25:43;16.70;99.90
20973;DHT22;10645;52.370;13.314;2023-07-31T07:28:09;16.80;99.90
20973;DHT22;10645;52.370;13.314;2023-07-31T07:30:36;16.70;99.90
20973;DHT22;10645;52.370;13.314;2023-07-31T07:33:02;16.80;99.90
20973;DHT22;10645;52.370;13.314;2023-07-31T07:35:28;16.80;99.90
20973;DHT22;10645;52.370;13.314;2023-07-31T07:37:54;16.70;99.90
20973;DHT22;10645;52.370;13.314;2023-07-31T07:40:21;16.70;99.90
20973;DHT22;10645;52.370;13.314;2023-07-31T07:42:47;16.80;99.90
20973;DHT22;10645;52.370;13.314;2023-07-31T07:45:13;16.80;99.90
20973;DHT22;10645;52.370;13.314;2023-07-31T07:47:40;16.80;99.90
20973;DHT22;10645;52.370;13.314;2023-07-31T07:50:07;17.00;99.90
20973;DHT22;10645;52.370;13.314;2023-07-31T07:52:33;17.10;99.90
20973;DHT22;10645;52.370;13.314;2023-07-31T07:54:59;17.10;99.90
20973;DHT22;10645;52.370;13.314;2023-07-31T07:57:26;17.20;99.90
20973;DHT22;10645;52.370;13.314;2023-07-31T07:59:52;17.20;99.90
20973;DHT22;10645;52.370;13.314;2023-07-31T08:02:18;17.10;99.90
20973;DHT22;10645;52.370;13.314;2023-07-31T08:04:44;17.10;99.90
20973;DHT22;10645;52.370;13.314;2023-07-31T08:07:11;17.10;99.90
20973;DHT22;10645;52.370;13.314;2023-07-31T08:09:38;17.10;99.90
20973;DHT22;10645;52.370;13.314;2023-07-31T08:12:05;17.00;99.90
20973;DHT22;10645;52.370;13.314;2023-07-31T08:14:31;17.10;99.90
20973;DHT22;10645;52.370;13.314;2023-07-31T08:16:57;17.20;99.90
20973;DHT22;10645;52.370;13.314;2023-07-31T08:19:24;17.20;99.90
20973;DHT22;10645;52.370;13.314;2023-07-31T08:21:50;17.20;99.90
20973;DHT22;10645;52.370;13.314;2023-07-31T08:24:16;17.30;99.90
20973;DHT22;10645;52.370;13.314;2023-07-31T08:26:42;17.50;99.90
20973;DHT22;10645;52.370;13.314;2023-07-31T08:29:08;17.70;99.90
20973;DHT22;10645;52.370;13.314;2023-07-31T08:31:34;17.70;99.90
20973;DHT22;10645;52.370;13.314;2023-07-31T08:34:00;17.70;99.90
20973;DHT22;10645;52.370;13.314;2023-07-31T08:36:27;17.80;99.90
20973;DHT22;10645;52.370;13.314;2023-07-31T08:38:53;17.90;99.90
20973;DHT22;10645;52.370;13.314;2023-07-31T08:41:19;17.80;99.90
20973;DHT22;10645;52.370;13.314;2023-07-31T08:43:46;17.80;99.90
20973;DHT22;10645;52.370;13.314;2023-07-31T08:46:12;17.70;99.90
20973;DHT22;10645;52.370;13.314;2023-07-31T08:48:42;17.80;99.90
20973;DHT22;10645;52.370;13.314;2023-07-31T08:51:09;17.80;99.90
20973;DHT22;10645;52.370;13.314;2023-07-31T08:53:35;17.80;99.90
20973;DHT22;10645;52.370;13.314;2023-07-31T08:56:02;18.00;99.90
20973;DHT22;10645;52.370;13.314;2023-07-31T08:58:31;18.00;99.90
20973;DHT22;10645;52.370;13.314;2023-07-31T09:01:01;18.10;99.90
20973;DHT22;10645;52.370;13.314;2023-07-31T09:03:28;18.30;99.90
20973;DHT22;10645;52.370;13.314;2023-07-31T09:05:58;18.30;99.90
20973;DHT22;10645;52.370;13.314;2023-07-31T09:08:26;18.40;99.90
20973;DHT22;10645;52.370;13.314;2023-07-31T09:10:59;18.50;99.90
20973;DHT22;10645;52.370;13.314;2023-07-31T09:13:26;18.60;99.90
20973;DHT22;10645;52.370;13.314;2023-07-31T09:15:53;18.60;99.90
20973;DHT22;10645;52.370;13.314;2023-07-31T09:18:19;18.50;99.90
20973;DHT22;10645;52.370;13.314;2023-07-31T09:21:06;18.50;99.90
20973;DHT22;10645;52.370;13.314;2023-07-31T09:23:43;18.20;99.90
20973;DHT22;10645;52.370;13.314;2023-07-31T09:26:10;18.20;99.90
20973;DHT22;10645;52.370;13.314;2023-07-31T09:28:36;18.10;99.90
20973;DHT22;10645;52.370;13.314;2023-07-31T09:31:02;18.20;99.90
20973;DHT22;10645;52.370;13.314;2023-07-31T09:33:28;18.30;99.90
20973;DHT22;10645;52.370;13.314;2023-07-31T09:35:58;18.40;99.90
20973;DHT22;10645;52.370;13.314;2023-07-31T09:38:25;18.50;99.90
20973;DHT22;10645;52.370;13.314;2023-07-31T09:40:51;18.60;99.90
20973;DHT22;10645;52.370;13.314;2023-07-31T09:43:21;18.50;99.90
20973;DHT22;10645;52.370;13.314;2023-07-31T09:45:48;18.50;99.90
20973;DHT22;10645;52.370;13.314;2023-07-31T09:48:16;18.50;99.90
20973;DHT22;10645;52.370;13.314;2023-07-31T09:50:46;18.50;99.90
20973;DHT22;10645;52.370;13.314;2023-07-31T09:53:13;18.60;99.90
20973;DHT22;10645;52.370;13.314;2023-07-31T09:55:40;18.70;99.90
20973;DHT22;10645;52.370;13.314;2023-07-31T09:58:08;18.70;99.90
20973;DHT22;10645;52.370;13.314;2023-07-31T10:00:35;18.60;99.90
20973;DHT22;10645;52.370;13.314;2023-07-31T10:03:04;18.60;99.90
20973;DHT22;10645;52.370;13.314;2023-07-31T10:05:36;18.50;99.90
20973;DHT22;10645;52.370;13.314;2023-07-31T10:08:03;18.50;99.90
20973;DHT22;10645;52.370;13.314;2023-07-31T10:10:30;18.50;99.90
20973;DHT22;10645;52.370;13.314;2023-07-31T10:12:57;18.50;99.90
20973;DHT22;10645;52.370;13.314;2023-07-31T10:15:23;18.50;99.90
20973;DHT22;10645;52.370;13.314;2023-07-31T10:17:51;18.50;99.90
20973;DHT22;10645;52.370;13.314;2023-07-31T10:20:17;18.40;99.90
20973;DHT22;10645;52.370;13.314;2023-07-31T10:22:44;18.60;99.90
20973;DHT22;10645;52.370;13.314;2023-07-31T10:25:13;18.60;99.90
20973;DHT22;10645;52.370;13.314;2023-07-31T10:27:39;18.70;99.90
20973;DHT22;10645;52.370;13.314;2023-07-31T10:30:08;18.90;99.90
20973;DHT22;10645;52.370;13.314;2023-07-31T10:32:36;19.10;99.90
20973;DHT22;10645;52.370;13.314;2023-07-31T10:35:04;19.50;99.90
20973;DHT22;10645;52.370;13.314;2023-07-31T10:37:37;19.80;99.90
20973;DHT22;10645;52.370;13.314;2023-07-31T10:42:47;20.30;99.90
20973;DHT22;10645;52.370;13.314;2023-07-31T10:45:33;20.70;99.90
20973;DHT22;10645;52.370;13.314;2023-07-31T10:48:05;21.10;99.90
20973;DHT22;10645;52.370;13.314;2023-07-31T10:50:36;21.10;99.90
20973;DHT22;10645;52.370;13.314;2023-07-31T10:53:03;21.50;99.90
20973;DHT22;10645;52.370;13.314;2023-07-31T10:55:38;21.70;99.90
20973;DHT22;10645;52.370;13.314;2023-07-31T10:58:10;21.70;99.90
20973;DHT22;10645;52.370;13.314;2023-07-31T11:00:43;21.90;99.90
20973;DHT22;10645;52.370;13.314;2023-07-31T11:03:11;22.00;99.90
20973;DHT22;10645;52.370;13.314;2023-07-31T11:08:23;22.20;99.90
20973;DHT22;10645;52.370;13.314;2023-07-31T11:11:03;22.30;99.90
20973;DHT22;10645;52.370;13.314;2023-07-31T11:13:39;22.30;99.90
20973;DHT22;10645;52.370;13.314;2023-07-31T11:16:05;22.20;99.90
20973;DHT22;10645;52.370;13.314;2023-07-31T11:18:31;22.30;99.90
20973;DHT22;10645;52.370;13.314;2023-07-31T11:20:57;22.30;99.90
20973;DHT22;10645;52.370;13.314;2023-07-31T11:23:24;22.50;99.90
20973;DHT22;10645;52.370;13.314;2023-07-31T11:25:50;22.30;99.90
20973;DHT22;10645;52.370;13.314;2023-07-31T11:28:17;22.30;99.90
20973;DHT22;10645;52.370;13.314;2023-07-31T11:30:45;22.20;99.90
20973;DHT22;10645;52.370;13.314;2023-07-31T11:33:12;22.10;99.90
20973;DHT22;10645;52.370;13.314;2023-07-31T11:35:46;22.10;99.90
20973;DHT22;10645;52.370;13.314;2023-07-31T11:38:27;22.20;99.90
20973;DHT22;10645;52.370;13.314;2023-07-31T11:40:57;22.50;99.90
20973;DHT22;10645;52.370;13.314;2023-07-31T11:43:23;22.40;99.90
20973;DHT22;10645;52.370;13.314;2023-07-31T11:45:56;22.20;99.90
20973;DHT22;10645;52.370;13.314;2023-07-31T11:48:27;21.90;99.90
20973;DHT22;10645;52.370;13.314;2023-07-31T11:50:56;21.70;99.90
20973;DHT22;10645;52.370;13.314;2023-07-31T11:53:28;21.70;99.90
20973;DHT22;10645;52.370;13.314;2023-07-31T11:55:58;21.50;99.90
20973;DHT22;10645;52.370;13.314;2023-07-31T11:58:24;21.40;99.90
20973;DHT22;10645;52.370;13.314;2023-07-31T12:00:51;21.30;99.90
20973;DHT22;10645;52.370;13.314;2023-07-31T12:03:18;21.40;99.90
20973;DHT22;10645;52.370;13.314;2023-07-31T12:05:44;21.40;99.90
20973;DHT22;10645;52.370;13.314;2023-07-31T12:08:12;21.40;99.90
20973;DHT22;10645;52.370;13.314;2023-07-31T12:10:39;21.50;99.90
20973;DHT22;10645;52.370;13.314;2023-07-31T12:13:09;21.40;99.90
20973;DHT22;10645;52.370;13.314;2023-07-31T12:15:38;21.40;99.90
20973;DHT22;10645;52.370;13.314;2023-07-31T12:18:05;21.40;99.90
20973;DHT22;10645;52.370;13.314;2023-07-31T12:20:32;21.20;99.90
20973;DHT22;10645;52.370;13.314;2023-07-31T12:22:58;21.20;99.90
20973;DHT22;10645;52.370;13.314;2023-07-31T12:25:29;21.00;99.90
20973;DHT22;10645;52.370;13.314;2023-07-31T12:27:56;21.00;99.90
20973;DHT22;10645;52.370;13.314;2023-07-31T12:30:31;21.00;99.90
20973;DHT22;10645;52.370;13.314;2023-07-31T12:32:57;20.90;99.90
20973;DHT22;10645;52.370;13.314;2023-07-31T12:35:38;21.00;99.90
20973;DHT22;10645;52.370;13.314;2023-07-31T12:38:06;21.00;99.90
20973;DHT22;10645;52.370;13.314;2023-07-31T12:40:32;21.10;99.90
20973;DHT22;10645;52.370;13.314;2023-07-31T12:43:01;21.20;99.90
20973;DHT22;10645;52.370;13.314;2023-07-31T12:45:28;21.20;99.90
20973;DHT22;10645;52.370;13.314;2023-07-31T12:47:54;21.50;99.90
20973;DHT22;10645;52.370;13.314;2023-07-31T12:50:20;21.60;99.90
20973;DHT22;10645;52.370;13.314;2023-07-31T12:52:46;21.90;99.90
20973;DHT22;10645;52.370;13.314;2023-07-31T12:55:12;22.10;99.90
20973;DHT22;10645;52.370;13.314;2023-07-31T12:57:39;22.30;99.90
20973;DHT22;10645;52.370;13.314;2023-07-31T13:00:06;22.00;99.90
20973;DHT22;10645;52.370;13.314;2023-07-31T13:02:32;21.70;99.90
20973;DHT22;10645;52.370;13.314;2023-07-31T13:04:58;21.70;99.90
20973;DHT22;10645;52.370;13.314;2023-07-31T13:07:24;21.80;99.90
20973;DHT22;10645;52.370;13.314;2023-07-31T13:09:51;21.70;99.90
20973;DHT22;10645;52.370;13.314;2023-07-31T13:12:17;21.70;99.90
20973;DHT22;10645;52.370;13.314;2023-07-31T13:14:43;21.90;99.90
20973;DHT22;10645;52.370;13.314;2023-07-31T13:17:09;22.10;99.90
20973;DHT22;10645;52.370;13.314;2023-07-31T13:19:35;22.20;99.90
20973;DHT22;10645;52.370;13.314;2023-07-31T13:22:02;22.20;99.90
20973;DHT22;10645;52.370;13.314;2023-07-31T13:24:28;22.20;99.90
20973;DHT22;10645;52.370;13.314;2023-07-31T13:26:55;22.10;99.90
20973;DHT22;10645;52.370;13.314;2023-07-31T13:29:21;22.20;99.90
20973;DHT22;10645;52.370;13.314;2023-07-31T13:31:48;22.50;99.90
20973;DHT22;10645;52.370;13.314;2023-07-31T13:34:14;22.70;99.90
20973;DHT22;10645;52.370;13.314;2023-07-31T13:36:40;22.80;99.90
20973;DHT22;10645;52.370;13.314;2023-07-31T13:39:07;23.00;99.90
20973;DHT22;10645;52.370;13.314;2023-07-31T13:41:33;23.00;99.90
20973;DHT22;10645;52.370;13.314;2023-07-31T13:43:59;23.10;99.90
20973;DHT22;10645;52.370;13.314;2023-07-31T13:46:25;23.10;99.90
20973;DHT22;10645;52.370;13.314;2023-07-31T13:48:52;22.90;99.90
20973;DHT22;10645;52.370;13.314;2023-07-31T13:51:24;22.90;99.90
20973;DHT22;10645;52.370;13.314;2023-07-31T13:53:50;22.90;99.90
20973;DHT22;10645;52.370;13.314;2023-07-31T13:56:16;22.90;99.90
20973;DHT22;10645;52.370;13.314;2023-07-31T13:58:42;23.00;99.90
20973;DHT22;10645;52.370;13.314;2023-07-31T14:01:08;23.20;99.90
20973;DHT22;10645;52.370;13.314;2023-07-31T14:03:34;23.00;99.90
20973;DHT22;10645;52.370;13.314;2023-07-31T14:06:01;22.90;99.90
20973;DHT22;10645;52.370;13.314;2023-07-31T14:08:27;22.80;99.90
20973;DHT22;10645;52.370;13.314;2023-07-31T14:10:53;22.80;99.90
20973;DHT22;10645;52.370;13.314;2023-07-31T14:13:19;22.60;99.90
20973;DHT22;10645;52.370;13.314;2023-07-31T14:15:45;22.40;99.90
20973;DHT22;10645;52.370;13.314;2023-07-31T14:18:11;22.40;99.90
20973;DHT22;10645;52.370;13.314;2023-07-31T14:20:37;22.30;99.90
20973;DHT22;10645;52.370;13.314;2023-07-31T14:23:04;22.30;99.90
20973;DHT22;10645;52.370;13.314;2023-07-31T14:25:30;22.20;99.90
20973;DHT22;10645;52.370;13.314;2023-07-31T14:27:56;22.20;99.90
20973;DHT22;10645;52.370;13.314;2023-07-31T14:30:22;22.30;99.90
20973;DHT22;10645;52.370;13.314;2023-07-31T14:32:49;22.30;99.90
20973;DHT22;10645;52.370;13.314;2023-07-31T14:35:15;22.40;99.90
20973;DHT22;10645;52.370;13.314;2023-07-31T14:37:42;22.50;99.90
20973;DHT22;10645;52.370;13.314;2023-07-31T14:40:10;22.50;99.90
20973;DHT22;10645;52.370;13.314;2023-07-31T14:42:37;22.30;99.90
20973;DHT22;10645;52.370;13.314;2023-07-31T14:45:06;22.20;99.90
20973;DHT22;10645;52.370;13.314;2023-07-31T14:47:32;22.30;99.90
20973;DHT22;10645;52.370;13.314;2023-07-31T14:49:59;22.20;99.90
20973;DHT22;10645;52.370;13.314;2023-07-31T14:52:26;22.30;99.90
20973;DHT22;10645;52.370;13.314;2023-07-31T14:54:52;22.10;99.90
20973;DHT22;10645;52.370;13.314;2023-07-31T14:57:18;22.00;99.90
20973;DHT22;10645;52.370;13.314;2023-07-31T14:59:45;21.80;99.90
20973;DHT22;10645;52.370;13.314;2023-07-31T15:02:12;21.60;99.90
20973;DHT22;10645;52.370;13.314;2023-07-31T15:04:38;21.40;99.90
20973;DHT22;10645;52.370;13.314;2023-07-31T15:07:04;21.30;99.90
20973;DHT22;10645;52.370;13.314;2023-07-31T15:09:31;21.20;99.90
20973;DHT22;10645;52.370;13.314;2023-07-31T15:11:57;21.10;99.90
20973;DHT22;10645;52.370;13.314;2023-07-31T15:14:24;21.00;99.90
20973;DHT22;10645;52.370;13.314;2023-07-31T15:16:50;21.10;99.90
20973;DHT22;10645;52.370;13.314;2023-07-31T15:19:16;21.10;99.90
20973;DHT22;10645;52.370;13.314;2023-07-31T15:21:43;21.10;99.90
20973;DHT22;10645;52.370;13.314;2023-07-31T15:24:09;21.10;99.90